Terminal Aerodrome Forecast
Issued by NWS Blacksburg, VA

Current Version | Previous Version | Graphics & Text | Print | Product List | Glossary On
Versions: 1 2 3 4 5 6 7 8 9 10 11 12 13 14 15 16 17 18 19 20 21 22 23 24 25 26 27 28 29 30 31 32 33 34 35 36
000
FTUS41 KRNK 160520
TAFBLF
TAF
KBLF 160520Z 1606/1706 18005KT P6SM OVC050
     FM161000 18007KT 6SM -SHRA OVC025
     FM161500 22008KT P6SM SCT020 OVC045
     FM161900 26009KT P6SM OVC025=

USA.gov is the U.S. government's official web portal to all federal, state and local government web resources and services.